Monitor — WCX9104 — position and weather

sailwx.info

Track history (hours):
 
Tides and Currents Weather Stations Pressure Air Temp Water Temp Dewpoint Dewpoint Depression Visibility Wind Speed Wind Dir Waves Ship Positions

Monitor

Owner: CROWLEY PUERTO RICO SERVICES INC, Seattle, WA. More information available from US FCC via Universal Licensing System and Coast Guard Vessel Documentation Center.

Last reported at 2017-Feb-21 15:30 UTC. Time now 2017-Feb-22 15:19 UTC.
Position N 39°00' W 075°08'.

Length 40 m; draft 5.8 m.

Type: Towing. MMSI: 366766920.

Date/timePositionNaut miles runAvg speedWind from/ knotsBaromVisibWave heightAir tempDewpointWater temp
2017-Feb-21 15:30N 39°00' W 075°08'1110.3
2017-Feb-21 14:26N 39°10' W 075°15'9 9.9
2017-Feb-21 13:33N 39°17' W 075°22'9 9.1
2017-Feb-21 12:34N 39°24' W 075°29'7 7.1
2017-Feb-21 11:33N 39°30' W 075°33'7 6.7
2017-Feb-21 10:34N 39°37' W 075°35'7 7.2
2017-Feb-21 09:33N 39°43' W 075°30'8 8.1
2017-Feb-21 08:33N 39°49' W 075°23'10 9.6
2017-Feb-21 07:33N 39°53' W 075°12'6 0.3
2017-Feb-20 07:32N 39°58' W 075°07'6 5.9
2017-Feb-20 06:33N 39°53' W 075°10'9 8.1
2017-Feb-20 05:26N 39°50' W 075°22'7 8.0
2017-Feb-20 04:33N 39°46' W 075°29'8 7.8
2017-Feb-20 03:33N 39°39' W 075°33'7 7.1
2017-Feb-20 02:33N 39°32' W 075°33'7 7.5
2017-Feb-20 01:33N 39°24' W 075°30'8 8.4
2017-Feb-20 00:33N 39°18' W 075°23'9 9.1
2017-Feb-19 23:33N 39°11' W 075°16'  
2017-Feb-13 00:29N 18°29' W 066°08'2 0.3
2017-Feb-12 16:28N 18°27' W 066°06'1 0.2
2017-Feb-12 13:10N 18°28' W 066°06'1 1.0
2017-Feb-12 12:33N 18°27' W 066°06'0 0.3
2017-Feb-12 11:09N 18°27' W 066°06'6 3.2
2017-Feb-12 09:25N 18°32' W 066°08'  
Track history (hours):
 
Tides and Currents Weather Stations Pressure Air Temp Water Temp Dewpoint Dewpoint Depression Visibility Wind Speed Wind Dir Waves Ship Positions

Monitor

Owner: CROWLEY PUERTO RICO SERVICES INC, Seattle, WA. More information available from US FCC via Universal Licensing System and Coast Guard Vessel Documentation Center.

Last reported at 2017-Feb-21 15:30 UTC. Time now 2017-Feb-22 15:19 UTC.
Position N 39°00' W 075°08'.

Length 40 m; draft 5.8 m.

Type: Towing. MMSI: 366766920.

Date/timePositionNaut miles runAvg speedWind from/ knotsBaromVisibWave heightAir tempDewpointWater temp
2017-Feb-21 15:30N 39°00' W 075°08'1110.3
2017-Feb-21 14:26N 39°10' W 075°15'9 9.9
2017-Feb-21 13:33N 39°17' W 075°22'9 9.1
2017-Feb-21 12:34N 39°24' W 075°29'7 7.1
2017-Feb-21 11:33N 39°30' W 075°33'7 6.7
2017-Feb-21 10:34N 39°37' W 075°35'7 7.2
2017-Feb-21 09:33N 39°43' W 075°30'8 8.1
2017-Feb-21 08:33N 39°49' W 075°23'10 9.6
2017-Feb-21 07:33N 39°53' W 075°12'6 0.3
2017-Feb-20 07:32N 39°58' W 075°07'6 5.9
2017-Feb-20 06:33N 39°53' W 075°10'9 8.1
2017-Feb-20 05:26N 39°50' W 075°22'7 8.0
2017-Feb-20 04:33N 39°46' W 075°29'8 7.8
2017-Feb-20 03:33N 39°39' W 075°33'7 7.1
2017-Feb-20 02:33N 39°32' W 075°33'7 7.5
2017-Feb-20 01:33N 39°24' W 075°30'8 8.4
2017-Feb-20 00:33N 39°18' W 075°23'9 9.1
2017-Feb-19 23:33N 39°11' W 075°16'  
2017-Feb-13 00:29N 18°29' W 066°08'2 0.3
2017-Feb-12 16:28N 18°27' W 066°06'1 0.2
2017-Feb-12 13:10N 18°28' W 066°06'1 1.0
2017-Feb-12 12:33N 18°27' W 066°06'0 0.3
2017-Feb-12 11:09N 18°27' W 066°06'6 3.2
2017-Feb-12 09:25N 18°32' W 066°08'  

Dump ship's entire track history